Time;durP1;ratioP1;P1;durP2;ratioP2;P2;SDS_P1;SDS_P2;PMS_P1;PMS_P2;Temp;Humidity;BMP_temperature;BMP_pressure;BME280_temperature;BME280_humidity;BME280_pressure;Samples;Min_cycle;Max_cycle;Signal;HPM_P1;HPM_P2
2020/12/19 00:01:06;432.00;0.00;1.37;0.00;0.00;0.62;;;;;26.00;37.70;;;;;;2228170;61;6108;-73
2020/12/19 00:03:32;0.00;0.00;0.62;0.00;0.00;0.62;;;;;26.00;37.60;;;;;;2231301;61;5849;-73
2020/12/19 00:05:58;263254.00;0.88;454.74;0.00;0.00;0.62;;;;;25.90;37.50;;;;;;2234279;61;5717;-73
2020/12/19 00:08:28;0.00;0.00;0.62;0.00;0.00;0.62;;;;;26.00;37.60;;;;;;2234447;61;6007;-73
2020/12/19 00:10:55;0.00;0.00;0.62;0.00;0.00;0.62;;;;;25.90;37.50;;;;;;2230949;61;4322;-72
2020/12/19 00:13:21;0.00;0.00;0.62;0.00;0.00;0.62;;;;;25.90;37.50;;;;;;2235054;61;8325;-73
2020/12/19 00:15:47;0.00;0.00;0.62;0.00;0.00;0.62;;;;;25.90;37.50;;;;;;2231111;61;7381;-73
2020/12/19 00:18:15;0.00;0.00;0.62;0.00;0.00;0.62;;;;;25.90;37.50;;;;;;2237493;61;8060;-73
2020/12/19 00:20:41;0.00;0.00;0.62;0.00;0.00;0.62;;;;;25.90;37.50;;;;;;2231568;61;5985;-73
2020/12/19 00:23:08;222397.00;0.74;384.47;0.00;0.00;0.62;;;;;25.90;37.50;;;;;;2234558;61;7662;-73
2020/12/19 00:25:34;0.00;0.00;0.62;0.00;0.00;0.62;;;;;25.90;37.50;;;;;;2230914;61;7210;-72
2020/12/19 00:28:00;0.00;0.00;0.62;0.00;0.00;0.62;;;;;25.90;37.40;;;;;;2230260;61;7733;-73
2020/12/19 00:30:26;0.00;0.00;0.62;0.00;0.00;0.62;;;;;25.90;37.40;;;;;;2230972;61;7685;-73
2020/12/19 00:32:53;0.00;0.00;0.62;0.00;0.00;0.62;;;;;25.90;37.40;;;;;;2231296;61;7909;-73
2020/12/19 00:35:19;0.00;0.00;0.62;0.00;0.00;0.62;;;;;25.90;37.50;;;;;;2232425;61;7970;-73
2020/12/19 00:37:46;46259.00;0.15;80.72;0.00;0.00;0.62;;;;;25.90;37.40;;;;;;2231031;61;7673;-73
2020/12/19 00:40:12;21437.00;0.07;37.76;0.00;0.00;0.62;;;;;25.90;37.50;;;;;;2231448;61;7891;-73
2020/12/19 00:42:40;0.00;0.00;0.62;0.00;0.00;0.62;;;;;25.90;37.40;;;;;;2225175;61;7755;-72
2020/12/19 00:45:08;0.00;0.00;0.62;0.00;0.00;0.62;;;;;25.90;37.50;;;;;;2234425;61;7924;-72
2020/12/19 00:47:36;0.00;0.00;0.62;0.00;0.00;0.62;;;;;25.90;37.50;;;;;;2235472;61;7727;-72
2020/12/19 00:50:09;0.00;0.00;0.62;0.00;0.00;0.62;;;;;25.90;37.50;;;;;;2234500;61;7743;-73
2020/12/19 00:52:36;0.00;0.00;0.62;0.00;0.00;0.62;;;;;25.80;37.40;;;;;;2235727;61;7607;-72
2020/12/19 00:55:05;0.00;0.00;0.62;0.00;0.00;0.62;;;;;25.80;37.50;;;;;;2232695;61;7649;-73
2020/12/19 00:57:32;0.00;0.00;0.62;0.00;0.00;0.62;;;;;25.80;37.50;;;;;;2235790;61;5868;-73
2020/12/19 01:00:00;0.00;0.00;0.62;0.00;0.00;0.62;;;;;25.80;37.50;;;;;;2231896;61;6185;-73
2020/12/19 01:02:27;125806.00;0.42;218.10;18477.00;0.06;32.63;;;;;25.70;37.50;;;;;;2231058;61;6000;-73
2020/12/19 01:05:10;0.00;0.00;0.62;0.00;0.00;0.62;;;;;25.80;37.60;;;;;;2232714;61;7644;-73
2020/12/19 01:07:37;0.00;0.00;0.62;0.00;0.00;0.62;;;;;25.70;37.60;;;;;;2231627;61;7785;-73
2020/12/19 01:10:07;0.00;0.00;0.62;0.00;0.00;0.62;;;;;25.70;37.60;;;;;;2232503;61;7755;-72
2020/12/19 01:12:34;0.00;0.00;0.62;0.00;0.00;0.62;;;;;25.70;37.60;;;;;;2234175;61;7674;-73
2020/12/19 01:15:00;0.00;0.00;0.62;0.00;0.00;0.62;;;;;25.70;37.60;;;;;;2231590;61;7653;-73
2020/12/19 01:17:27;0.00;0.00;0.62;0.00;0.00;0.62;;;;;25.70;37.60;;;;;;2231602;61;7825;-72
2020/12/19 01:20:00;0.00;0.00;0.62;0.00;0.00;0.62;;;;;25.70;37.60;;;;;;2234153;61;7983;-73
2020/12/19 01:22:34;0.00;0.00;0.62;0.00;0.00;0.62;;;;;25.70;37.50;;;;;;2231422;61;5808;-72
2020/12/19 01:25:01;0.00;0.00;0.62;0.00;0.00;0.62;;;;;25.70;37.50;;;;;;2230854;61;4176;-72
2020/12/19 01:27:28;0.00;0.00;0.62;0.00;0.00;0.62;;;;;25.70;37.40;;;;;;2231057;61;7242;-73
2020/12/19 01:29:54;0.00;0.00;0.62;0.00;0.00;0.62;;;;;25.70;37.40;;;;;;2229053;61;8047;-73
2020/12/19 01:32:20;0.00;0.00;0.62;0.00;0.00;0.62;;;;;25.70;37.40;;;;;;2231845;61;7516;-73
2020/12/19 01:34:46;198963.00;0.66;344.14;18092.00;0.06;31.97;;;;;25.70;37.40;;;;;;2230184;61;7675;-73
2020/12/19 01:37:13;0.00;0.00;0.62;0.00;0.00;0.62;;;;;25.70;37.40;;;;;;2229803;61;7475;-73
2020/12/19 01:39:43;267181.00;0.89;461.50;23912.00;0.08;42.04;;;;;25.70;37.50;;;;;;2233912;61;5960;-73
2020/12/19 01:42:09;0.00;0.00;0.62;0.00;0.00;0.62;;;;;25.70;37.30;;;;;;2234490;61;7572;-73
2020/12/19 01:44:35;182843.00;0.61;316.39;0.00;0.00;0.62;;;;;25.80;37.40;;;;;;2230711;61;7569;-72
2020/12/19 01:47:03;0.00;0.00;0.62;0.00;0.00;0.62;;;;;25.80;37.20;;;;;;2230437;61;7366;-73
2020/12/19 01:49:31;0.00;0.00;0.62;0.00;0.00;0.62;;;;;25.80;37.20;;;;;;2234741;61;7706;-72
2020/12/19 01:52:00;58138.00;0.19;101.26;0.00;0.00;0.62;;;;;25.80;37.50;;;;;;2231191;61;7808;-73
2020/12/19 01:54:29;0.00;0.00;0.62;0.00;0.00;0.62;;;;;25.80;37.10;;;;;;2234360;61;6017;-72
2020/12/19 01:56:57;0.00;0.00;0.62;0.00;0.00;0.62;;;;;25.80;37.10;;;;;;2229946;61;7510;-73
2020/12/19 01:59:32;0.00;0.00;0.62;0.00;0.00;0.62;;;;;25.80;37.10;;;;;;2232310;61;5945;-72
2020/12/19 02:02:06;0.00;0.00;0.62;0.00;0.00;0.62;;;;;25.80;37.10;;;;;;2230735;61;7466;-72
2020/12/19 02:04:37;0.00;0.00;0.62;0.00;0.00;0.62;;;;;25.80;37.20;;;;;;2239688;61;7549;-73
2020/12/19 02:07:05;0.00;0.00;0.62;0.00;0.00;0.62;;;;;25.80;37.10;;;;;;2241715;61;11055;-73
2020/12/19 02:09:39;0.00;0.00;0.62;0.00;0.00;0.62;;;;;25.80;37.10;;;;;;2248762;61;7439;-72
2020/12/19 02:12:08;0.00;0.00;0.62;0.00;0.00;0.62;;;;;25.80;37.10;;;;;;2250433;61;7858;-72
2020/12/19 02:14:36;0.00;0.00;0.62;0.00;0.00;0.62;;;;;25.70;37.00;;;;;;2247547;61;8959;-72
2020/12/19 02:17:05;0.00;0.00;0.62;0.00;0.00;0.62;;;;;25.70;37.00;;;;;;2250708;61;9364;-72
2020/12/19 02:19:32;0.00;0.00;0.62;0.00;0.00;0.62;;;;;25.70;37.00;;;;;;2250953;61;7507;-73
2020/12/19 02:22:04;0.00;0.00;0.62;0.00;0.00;0.62;;;;;25.70;37.40;;;;;;2247574;61;8900;-72
2020/12/19 02:24:32;0.00;0.00;0.62;0.00;0.00;0.62;;;;;25.70;37.10;;;;;;2251063;61;5933;-72
2020/12/19 02:26:59;0.00;0.00;0.62;0.00;0.00;0.62;;;;;25.70;37.00;;;;;;2248293;61;7118;-72
2020/12/19 02:29:27;0.00;0.00;0.62;0.00;0.00;0.62;;;;;25.70;37.00;;;;;;2247875;61;8538;-73
2020/12/19 02:31:55;194919.00;0.65;337.18;0.00;0.00;0.62;;;;;25.70;37.00;;;;;;2251083;61;6784;-72
2020/12/19 02:34:26;0.00;0.00;0.62;0.00;0.00;0.62;;;;;25.60;37.00;;;;;;2248188;61;7858;-73
2020/12/19 02:36:57;0.00;0.00;0.62;0.00;0.00;0.62;;;;;25.60;37.00;;;;;;2249586;61;7516;-73
2020/12/19 02:39:23;0.00;0.00;0.62;0.00;0.00;0.62;;;;;25.60;37.00;;;;;;2246946;61;6003;-72
2020/12/19 02:41:49;0.00;0.00;0.62;0.00;0.00;0.62;;;;;25.60;37.10;;;;;;2247420;61;7684;-72
2020/12/19 02:44:18;0.00;0.00;0.62;0.00;0.00;0.62;;;;;25.60;37.10;;;;;;2247747;61;8077;-72
2020/12/19 02:46:45;0.00;0.00;0.62;0.00;0.00;0.62;;;;;25.60;37.20;;;;;;2248087;61;7945;-72
2020/12/19 02:49:12;0.00;0.00;0.62;0.00;0.00;0.62;;;;;25.60;37.20;;;;;;2249743;61;7696;-73
2020/12/19 02:51:39;0.00;0.00;0.62;0.00;0.00;0.62;;;;;25.50;37.20;;;;;;2247618;61;5341;-73
2020/12/19 02:54:05;0.00;0.00;0.62;0.00;0.00;0.62;;;;;25.50;37.10;;;;;;2251453;61;7672;-72
2020/12/19 02:56:32;0.00;0.00;0.62;0.00;0.00;0.62;;;;;25.50;37.20;;;;;;2250524;61;7575;-73
2020/12/19 02:58:58;0.00;0.00;0.62;0.00;0.00;0.62;;;;;25.50;37.20;;;;;;2248170;61;4259;-71
2020/12/19 03:01:31;0.00;0.00;0.62;0.00;0.00;0.62;;;;;25.50;37.20;;;;;;2248595;61;5999;-72
2020/12/19 03:04:02;0.00;0.00;0.62;0.00;0.00;0.62;;;;;25.50;37.10;;;;;;2247062;61;3576;-72
2020/12/19 03:06:32;0.00;0.00;0.62;0.00;0.00;0.62;;;;;25.50;37.30;;;;;;2236042;61;9045;-72
2020/12/19 03:09:04;0.00;0.00;0.62;0.00;0.00;0.62;;;;;25.50;37.20;;;;;;2249105;61;7736;-72
2020/12/19 03:11:34;0.00;0.00;0.62;0.00;0.00;0.62;;;;;25.50;37.30;;;;;;2246684;61;7496;-72
2020/12/19 03:14:00;0.00;0.00;0.62;0.00;0.00;0.62;;;;;25.40;37.30;;;;;;2247019;61;7819;-72
2020/12/19 03:16:26;0.00;0.00;0.62;0.00;0.00;0.62;;;;;25.40;37.20;;;;;;2247449;61;7635;-72
2020/12/19 03:18:53;0.00;0.00;0.62;0.00;0.00;0.62;;;;;25.50;37.20;;;;;;2243473;61;7735;-73
2020/12/19 03:21:19;0.00;0.00;0.62;0.00;0.00;0.62;;;;;25.50;37.10;;;;;;2247002;61;7165;-72
2020/12/19 03:23:45;0.00;0.00;0.62;0.00;0.00;0.62;;;;;25.40;37.20;;;;;;2245367;61;7678;-72
2020/12/19 03:26:12;0.00;0.00;0.62;0.00;0.00;0.62;;;;;25.40;37.20;;;;;;2247099;61;7934;-72
2020/12/19 03:28:41;0.00;0.00;0.62;0.00;0.00;0.62;;;;;25.50;37.20;;;;;;2246569;61;7450;-72
2020/12/19 03:31:07;0.00;0.00;0.62;0.00;0.00;0.62;;;;;25.50;37.10;;;;;;2248064;61;7450;-72
2020/12/19 03:33:34;0.00;0.00;0.62;0.00;0.00;0.62;;;;;25.50;37.10;;;;;;2249445;61;7657;-72
2020/12/19 03:36:00;0.00;0.00;0.62;0.00;0.00;0.62;;;;;25.50;37.10;;;;;;2244046;61;8141;-72
2020/12/19 03:38:30;0.00;0.00;0.62;0.00;0.00;0.62;;;;;25.40;37.10;;;;;;2247200;61;8018;-72
2020/12/19 03:40:56;0.00;0.00;0.62;0.00;0.00;0.62;;;;;25.40;37.20;;;;;;2242742;61;7656;-72
2020/12/19 03:43:23;0.00;0.00;0.62;0.00;0.00;0.62;;;;;25.30;37.30;;;;;;2247919;61;7758;-72
2020/12/19 03:45:49;0.00;0.00;0.62;0.00;0.00;0.62;;;;;25.30;37.40;;;;;;2243755;61;7950;-72
2020/12/19 03:48:15;0.00;0.00;0.62;0.00;0.00;0.62;;;;;25.30;37.50;;;;;;2247389;61;7583;-72
2020/12/19 03:50:45;0.00;0.00;0.62;0.00;0.00;0.62;;;;;25.30;37.50;;;;;;2249690;61;7845;-72
2020/12/19 03:53:12;0.00;0.00;0.62;0.00;0.00;0.62;;;;;25.20;37.60;;;;;;2251142;61;7634;-72
2020/12/19 03:55:38;0.00;0.00;0.62;0.00;0.00;0.62;;;;;25.10;37.50;;;;;;2244174;61;8073;-73
2020/12/19 03:58:05;0.00;0.00;0.62;0.00;0.00;0.62;;;;;25.10;37.70;;;;;;2243332;61;7794;-72
2020/12/19 04:00:35;0.00;0.00;0.62;0.00;0.00;0.62;;;;;25.10;37.70;;;;;;2248153;61;7634;-72
2020/12/19 04:03:02;0.00;0.00;0.62;0.00;0.00;0.62;;;;;25.00;37.80;;;;;;2250897;61;7750;-72
2020/12/19 04:05:35;0.00;0.00;0.62;0.00;0.00;0.62;;;;;25.00;37.80;;;;;;2251562;61;6038;-71
2020/12/19 04:08:02;0.00;0.00;0.62;0.00;0.00;0.62;;;;;25.00;37.80;;;;;;2242940;61;7526;-72
2020/12/19 04:10:28;0.00;0.00;0.62;0.00;0.00;0.62;;;;;25.00;37.90;;;;;;2246984;61;8016;-71
2020/12/19 04:12:54;0.00;0.00;0.62;0.00;0.00;0.62;;;;;25.00;37.90;;;;;;2249670;61;6288;-72
2020/12/19 04:15:24;0.00;0.00;0.62;0.00;0.00;0.62;;;;;25.00;38.00;;;;;;2246952;61;4416;-71
2020/12/19 04:17:51;0.00;0.00;0.62;0.00;0.00;0.62;;;;;24.90;38.00;;;;;;2246997;61;7668;-72
2020/12/19 04:20:19;0.00;0.00;0.62;0.00;0.00;0.62;;;;;24.90;38.00;;;;;;2246938;61;7382;-72
2020/12/19 04:22:45;0.00;0.00;0.62;0.00;0.00;0.62;;;;;24.90;38.00;;;;;;2247696;61;5942;-71
2020/12/19 04:25:15;0.00;0.00;0.62;0.00;0.00;0.62;;;;;24.90;38.00;;;;;;2247593;61;7986;-72
2020/12/19 04:27:45;0.00;0.00;0.62;0.00;0.00;0.62;;;;;24.90;38.00;;;;;;2247882;61;4286;-72
2020/12/19 04:30:16;0.00;0.00;0.62;0.00;0.00;0.62;;;;;24.90;38.00;;;;;;2247395;61;7901;-72
2020/12/19 04:32:42;0.00;0.00;0.62;0.00;0.00;0.62;;;;;24.90;38.60;;;;;;2247316;61;6049;-71
2020/12/19 04:35:12;0.00;0.00;0.62;0.00;0.00;0.62;;;;;24.90;37.90;;;;;;2251162;61;5852;-72
2020/12/19 04:37:38;0.00;0.00;0.62;0.00;0.00;0.62;;;;;24.90;37.80;;;;;;2249466;61;5874;-72
2020/12/19 04:40:05;0.00;0.00;0.62;0.00;0.00;0.62;;;;;25.00;37.80;;;;;;2246780;61;5880;-72
2020/12/19 04:42:35;0.00;0.00;0.62;0.00;0.00;0.62;;;;;25.00;37.80;;;;;;2250275;61;7737;-72
2020/12/19 04:45:05;0.00;0.00;0.62;0.00;0.00;0.62;;;;;25.10;37.60;;;;;;2251174;61;5862;-72
2020/12/19 04:47:32;0.00;0.00;0.62;0.00;0.00;0.62;;;;;25.10;37.50;;;;;;2250189;61;7546;-71
2020/12/19 04:50:01;0.00;0.00;0.62;0.00;0.00;0.62;;;;;25.10;37.40;;;;;;2244009;61;8011;-72
2020/12/19 04:52:28;0.00;0.00;0.62;0.00;0.00;0.62;;;;;25.10;37.30;;;;;;2250159;61;7780;-72
2020/12/19 04:54:55;0.00;0.00;0.62;0.00;0.00;0.62;;;;;25.20;37.20;;;;;;2250436;61;6774;-71
2020/12/19 04:57:25;0.00;0.00;0.62;0.00;0.00;0.62;;;;;25.20;37.20;;;;;;2248928;61;7639;-72
2020/12/19 04:59:51;0.00;0.00;0.62;0.00;0.00;0.62;;;;;25.20;37.10;;;;;;2246378;61;6995;-72
2020/12/19 05:02:18;0.00;0.00;0.62;0.00;0.00;0.62;;;;;25.20;37.00;;;;;;2250578;61;4390;-71
2020/12/19 05:04:44;0.00;0.00;0.62;0.00;0.00;0.62;;;;;25.20;37.00;;;;;;2248994;61;4298;-71
2020/12/19 05:07:13;0.00;0.00;0.62;0.00;0.00;0.62;;;;;25.20;37.00;;;;;;2247419;61;2498;-72
2020/12/19 05:09:41;0.00;0.00;0.62;0.00;0.00;0.62;;;;;25.30;36.90;;;;;;2249839;61;4051;-72
2020/12/19 05:12:08;0.00;0.00;0.62;0.00;0.00;0.62;;;;;25.30;36.90;;;;;;2246681;61;2484;-72
2020/12/19 05:14:35;0.00;0.00;0.62;0.00;0.00;0.62;;;;;25.30;37.40;;;;;;2246444;61;3633;-71
2020/12/19 05:17:03;0.00;0.00;0.62;0.00;0.00;0.62;;;;;25.30;36.80;;;;;;2246680;61;6141;-71
2020/12/19 05:19:32;0.00;0.00;0.62;0.00;0.00;0.62;;;;;25.30;36.80;;;;;;2250429;61;7793;-72
2020/12/19 05:21:58;0.00;0.00;0.62;0.00;0.00;0.62;;;;;25.30;36.80;;;;;;2245863;61;7708;-71
2020/12/19 05:24:31;0.00;0.00;0.62;0.00;0.00;0.62;;;;;25.30;36.70;;;;;;2247462;61;7687;-72
2020/12/19 05:26:58;0.00;0.00;0.62;0.00;0.00;0.62;;;;;25.30;36.70;;;;;;2246481;61;8415;-72
2020/12/19 05:29:28;0.00;0.00;0.62;0.00;0.00;0.62;;;;;25.30;36.70;;;;;;2249233;61;4063;-72
2020/12/19 05:31:59;0.00;0.00;0.62;0.00;0.00;0.62;;;;;25.30;36.80;;;;;;2249983;61;5846;-72
2020/12/19 05:34:27;0.00;0.00;0.62;0.00;0.00;0.62;;;;;25.30;36.70;;;;;;2246334;61;8514;-72
2020/12/19 05:36:55;0.00;0.00;0.62;0.00;0.00;0.62;;;;;25.30;36.80;;;;;;2249338;61;8518;-72
2020/12/19 05:39:22;0.00;0.00;0.62;0.00;0.00;0.62;;;;;25.20;36.80;;;;;;2247280;61;6009;-72
2020/12/19 05:41:52;0.00;0.00;0.62;0.00;0.00;0.62;;;;;25.20;36.90;;;;;;2247289;61;7845;-72
2020/12/19 05:44:21;0.00;0.00;0.62;0.00;0.00;0.62;;;;;25.20;36.80;;;;;;2247218;61;7949;-71
2020/12/19 05:46:51;0.00;0.00;0.62;0.00;0.00;0.62;;;;;25.20;36.90;;;;;;2248601;61;7816;-72
2020/12/19 05:49:18;0.00;0.00;0.62;0.00;0.00;0.62;;;;;25.20;36.90;;;;;;2248297;61;7776;-71
2020/12/19 05:51:45;0.00;0.00;0.62;0.00;0.00;0.62;;;;;25.20;36.90;;;;;;2250848;61;8079;-71
2020/12/19 05:54:23;0.00;0.00;0.62;0.00;0.00;0.62;;;;;25.20;36.80;;;;;;2247933;61;7856;-72
2020/12/19 05:56:50;0.00;0.00;0.62;0.00;0.00;0.62;;;;;25.20;36.80;;;;;;2248869;61;7434;-72
2020/12/19 05:59:18;0.00;0.00;0.62;0.00;0.00;0.62;;;;;25.20;36.90;;;;;;2245397;61;7771;-72
2020/12/19 06:01:49;0.00;0.00;0.62;0.00;0.00;0.62;;;;;25.10;36.90;;;;;;2248965;61;7606;-72
2020/12/19 06:04:17;0.00;0.00;0.62;0.00;0.00;0.62;;;;;25.10;36.80;;;;;;2251917;61;7679;-72
2020/12/19 06:06:46;0.00;0.00;0.62;0.00;0.00;0.62;;;;;25.10;36.70;;;;;;2250516;61;7675;-72
2020/12/19 06:09:14;0.00;0.00;0.62;0.00;0.00;0.62;;;;;25.20;36.90;;;;;;2246670;61;7976;-72
2020/12/19 06:11:54;0.00;0.00;0.62;0.00;0.00;0.62;;;;;25.10;36.90;;;;;;2248359;61;7982;-71
2020/12/19 06:14:22;115164.00;0.38;199.74;0.00;0.00;0.62;;;;;25.20;36.90;;;;;;2246993;61;7458;-72
2020/12/19 06:16:53;0.00;0.00;0.62;0.00;0.00;0.62;;;;;25.20;36.80;;;;;;2252239;61;4307;-72
2020/12/19 06:19:23;0.00;0.00;0.62;0.00;0.00;0.62;;;;;25.20;36.90;;;;;;2250818;61;7544;-72
2020/12/19 06:21:51;0.00;0.00;0.62;0.00;0.00;0.62;;;;;25.20;36.80;;;;;;2247630;61;7650;-72
2020/12/19 06:24:44;0.00;0.00;0.62;0.00;0.00;0.62;;;;;25.20;36.80;;;;;;2248797;61;7559;-72
2020/12/19 06:27:23;0.00;0.00;0.62;0.00;0.00;0.62;;;;;25.10;36.90;;;;;;2251079;61;7730;-72
2020/12/19 06:29:50;0.00;0.00;0.62;0.00;0.00;0.62;;;;;25.10;37.00;;;;;;2250999;61;4276;-73
2020/12/19 06:32:25;0.00;0.00;0.62;0.00;0.00;0.62;;;;;25.10;37.10;;;;;;2248118;61;5860;-72
2020/12/19 06:35:10;0.00;0.00;0.62;0.00;0.00;0.62;;;;;25.10;37.00;;;;;;2250599;61;7377;-72
2020/12/19 06:37:43;0.00;0.00;0.62;0.00;0.00;0.62;;;;;25.00;37.10;;;;;;2247563;61;5778;-72
2020/12/19 06:40:13;0.00;0.00;0.62;0.00;0.00;0.62;;;;;25.00;37.20;;;;;;2247296;61;7670;-72
2020/12/19 06:43:08;0.00;0.00;0.62;0.00;0.00;0.62;;;;;24.90;37.30;;;;;;2247997;61;8111;-73
2020/12/19 06:45:35;0.00;0.00;0.62;0.00;0.00;0.62;;;;;24.90;37.40;;;;;;2250928;61;8045;-72
2020/12/19 06:48:31;0.00;0.00;0.62;0.00;0.00;0.62;;;;;24.90;37.40;;;;;;2248071;61;7491;-72
2020/12/19 06:50:59;0.00;0.00;0.62;0.00;0.00;0.62;;;;;24.80;37.40;;;;;;2251191;61;7752;-71
2020/12/19 06:53:28;0.00;0.00;0.62;0.00;0.00;0.62;;;;;24.80;37.50;;;;;;2250754;61;6893;-73
2020/12/19 06:55:55;0.00;0.00;0.62;0.00;0.00;0.62;;;;;24.80;37.60;;;;;;2247909;61;7596;-74
2020/12/19 06:58:31;0.00;0.00;0.62;0.00;0.00;0.62;;;;;24.70;37.60;;;;;;2247458;61;7709;-75
2020/12/19 07:00:58;0.00;0.00;0.62;0.00;0.00;0.62;;;;;24.70;37.60;;;;;;2247285;61;5892;-73
2020/12/19 07:03:40;0.00;0.00;0.62;0.00;0.00;0.62;;;;;24.70;37.70;;;;;;2247811;61;7528;-72
2020/12/19 07:06:11;0.00;0.00;0.62;0.00;0.00;0.62;;;;;24.70;37.70;;;;;;2250025;61;8784;-72
2020/12/19 07:08:48;0.00;0.00;0.62;0.00;0.00;0.62;;;;;24.70;37.60;;;;;;2249550;61;7430;-73
2020/12/19 07:11:35;0.00;0.00;0.62;0.00;0.00;0.62;;;;;24.70;37.70;;;;;;2247112;61;7656;-74
2020/12/19 07:14:02;0.00;0.00;0.62;0.00;0.00;0.62;;;;;24.70;37.70;;;;;;2250342;61;6658;-74
2020/12/19 07:16:48;0.00;0.00;0.62;0.00;0.00;0.62;;;;;24.70;37.70;;;;;;2250549;61;4963;-74
2020/12/19 07:19:15;0.00;0.00;0.62;0.00;0.00;0.62;;;;;24.70;37.70;;;;;;2249039;61;7867;-74
2020/12/19 07:21:42;0.00;0.00;0.62;0.00;0.00;0.62;;;;;24.70;37.70;;;;;;2249395;61;4415;-74
2020/12/19 07:24:09;0.00;0.00;0.62;0.00;0.00;0.62;;;;;24.70;37.60;;;;;;2246594;61;7432;-74
2020/12/19 07:26:36;0.00;0.00;0.62;0.00;0.00;0.62;;;;;24.80;37.50;;;;;;2247063;61;7751;-74
2020/12/19 07:29:11;45473.00;0.15;79.36;0.00;0.00;0.62;;;;;24.80;37.30;;;;;;2246650;61;4310;-74
2020/12/19 07:31:41;0.00;0.00;0.62;0.00;0.00;0.62;;;;;24.90;37.30;;;;;;2244886;61;5984;-74
2020/12/19 07:34:08;0.00;0.00;0.62;0.00;0.00;0.62;;;;;24.90;37.10;;;;;;2244353;61;7357;-74
2020/12/19 07:36:41;0.00;0.00;0.62;0.00;0.00;0.62;;;;;24.90;37.00;;;;;;2250317;61;6022;-74
2020/12/19 07:39:08;0.00;0.00;0.62;0.00;0.00;0.62;;;;;25.00;37.00;;;;;;2250604;61;7634;-73
2020/12/19 07:41:35;0.00;0.00;0.62;0.00;0.00;0.62;;;;;25.10;37.00;;;;;;2250414;61;4361;-74
2020/12/19 07:44:11;0.00;0.00;0.62;0.00;0.00;0.62;;;;;25.10;36.90;;;;;;2247442;61;4258;-74
2020/12/19 07:46:54;0.00;0.00;0.62;0.00;0.00;0.62;;;;;25.10;36.80;;;;;;2248060;61;7670;-74
2020/12/19 07:49:30;0.00;0.00;0.62;0.00;0.00;0.62;;;;;25.10;36.80;;;;;;2249700;61;7542;-75
2020/12/19 07:52:15;0.00;0.00;0.62;0.00;0.00;0.62;;;;;25.10;36.60;;;;;;2248306;61;5973;-76
2020/12/19 07:54:57;0.00;0.00;0.62;0.00;0.00;0.62;;;;;25.10;36.70;;;;;;2250536;61;6060;-76
2020/12/19 07:57:26;0.00;0.00;0.62;0.00;0.00;0.62;;;;;25.10;36.80;;;;;;2248933;61;7687;-77
2020/12/19 07:59:54;0.00;0.00;0.62;0.00;0.00;0.62;;;;;25.10;36.70;;;;;;2249250;61;7349;-75
2020/12/19 08:02:22;0.00;0.00;0.62;0.00;0.00;0.62;;;;;25.20;36.70;;;;;;2251478;61;6015;-75
2020/12/19 08:04:58;0.00;0.00;0.62;0.00;0.00;0.62;;;;;25.20;36.60;;;;;;2248124;61;7611;-75
2020/12/19 08:07:27;0.00;0.00;0.62;0.00;0.00;0.62;;;;;25.30;36.60;;;;;;2248196;61;7735;-75
2020/12/19 08:10:09;0.00;0.00;0.62;0.00;0.00;0.62;;;;;25.30;36.60;;;;;;2248220;61;5969;-75
2020/12/19 08:12:36;0.00;0.00;0.62;0.00;0.00;0.62;;;;;25.30;36.60;;;;;;2248727;61;5794;-75
2020/12/19 08:15:12;0.00;0.00;0.62;0.00;0.00;0.62;;;;;25.40;36.50;;;;;;2247691;61;5883;-75
2020/12/19 08:17:44;0.00;0.00;0.62;0.00;0.00;0.62;;;;;25.40;36.50;;;;;;2250310;61;5978;-76
2020/12/19 08:20:12;0.00;0.00;0.62;0.00;0.00;0.62;;;;;25.50;36.50;;;;;;2247760;61;7502;-77
2020/12/19 08:22:42;0.00;0.00;0.62;0.00;0.00;0.62;;;;;25.60;36.40;;;;;;2248373;61;4229;-76
2020/12/19 08:25:12;0.00;0.00;0.62;0.00;0.00;0.62;;;;;25.80;36.30;;;;;;2248268;61;5958;-76
2020/12/19 08:27:44;0.00;0.00;0.62;0.00;0.00;0.62;;;;;25.80;36.20;;;;;;2251769;61;5385;-76
2020/12/19 08:30:13;0.00;0.00;0.62;0.00;0.00;0.62;;;;;25.80;36.00;;;;;;2247494;61;6256;-76
2020/12/19 08:32:44;0.00;0.00;0.62;0.00;0.00;0.62;;;;;25.90;35.90;;;;;;2250236;61;3881;-76
2020/12/19 08:35:24;0.00;0.00;0.62;0.00;0.00;0.62;;;;;26.00;35.80;;;;;;2249927;61;3527;-76
2020/12/19 08:37:59;0.00;0.00;0.62;0.00;0.00;0.62;;;;;26.10;35.80;;;;;;2248030;61;5906;-76
2020/12/19 08:40:33;0.00;0.00;0.62;0.00;0.00;0.62;;;;;26.20;35.60;;;;;;2247253;61;7389;-76
2020/12/19 08:42:59;0.00;0.00;0.62;0.00;0.00;0.62;;;;;26.20;35.50;;;;;;2250707;61;7566;-76
2020/12/19 08:45:27;0.00;0.00;0.62;0.00;0.00;0.62;;;;;26.40;35.40;;;;;;2247270;61;7691;-76
2020/12/19 08:47:59;0.00;0.00;0.62;0.00;0.00;0.62;;;;;26.40;35.20;;;;;;2248106;61;4309;-75
2020/12/19 08:50:29;0.00;0.00;0.62;0.00;0.00;0.62;;;;;26.50;35.10;;;;;;2246098;61;7703;-74
2020/12/19 08:53:15;0.00;0.00;0.62;0.00;0.00;0.62;;;;;26.60;35.30;;;;;;2248034;61;7462;-73
2020/12/19 08:55:41;0.00;0.00;0.62;0.00;0.00;0.62;;;;;26.70;35.00;;;;;;2247336;61;7689;-73
2020/12/19 08:58:22;0.00;0.00;0.62;0.00;0.00;0.62;;;;;26.80;34.80;;;;;;2247533;61;7624;-74
2020/12/19 09:00:50;0.00;0.00;0.62;0.00;0.00;0.62;;;;;26.80;34.90;;;;;;2247713;61;5851;-76
2020/12/19 09:03:27;0.00;0.00;0.62;0.00;0.00;0.62;;;;;27.00;35.30;;;;;;2249788;61;5974;-75
2020/12/19 09:06:05;0.00;0.00;0.62;0.00;0.00;0.62;;;;;27.10;34.40;;;;;;2250694;61;4146;-76
2020/12/19 09:08:46;0.00;0.00;0.62;0.00;0.00;0.62;;;;;27.20;34.60;;;;;;2247311;61;7543;-76
2020/12/19 09:11:33;0.00;0.00;0.62;0.00;0.00;0.62;;;;;27.30;34.00;;;;;;2250916;61;7416;-76
2020/12/19 09:14:08;0.00;0.00;0.62;0.00;0.00;0.62;;;;;27.30;33.20;;;;;;2249797;61;7710;-75
2020/12/19 09:16:44;0.00;0.00;0.62;0.00;0.00;0.62;;;;;27.40;33.50;;;;;;2248026;61;7832;-75
2020/12/19 09:19:16;0.00;0.00;0.62;0.00;0.00;0.62;;;;;27.50;33.40;;;;;;2246640;61;7536;-76
2020/12/19 09:22:00;0.00;0.00;0.62;0.00;0.00;0.62;;;;;27.60;33.20;;;;;;2248500;61;5755;-76
2020/12/19 09:24:26;0.00;0.00;0.62;0.00;0.00;0.62;;;;;27.70;33.10;;;;;;2250439;61;7400;-75
2020/12/19 09:26:53;0.00;0.00;0.62;0.00;0.00;0.62;;;;;27.70;33.10;;;;;;2248309;61;3906;-75
2020/12/19 09:29:20;0.00;0.00;0.62;0.00;0.00;0.62;;;;;27.70;33.60;;;;;;2246187;61;7779;-73
2020/12/19 09:31:46;0.00;0.00;0.62;0.00;0.00;0.62;;;;;27.60;34.40;;;;;;2246021;61;7759;-72
2020/12/19 09:34:14;168796.00;0.56;292.19;27066.00;0.09;47.50;;;;;27.40;34.50;;;;;;2246862;61;7632;-71
2020/12/19 09:36:41;0.00;0.00;0.62;0.00;0.00;0.62;;;;;27.20;34.80;;;;;;2247461;61;7313;-74
2020/12/19 09:39:07;727351.00;2.42;1254.70;478732.00;1.60;825.22;;;;;27.20;35.70;;;;;;2250039;61;5884;-76
2020/12/19 09:41:40;0.00;0.00;0.62;0.00;0.00;0.62;;;;;27.10;35.40;;;;;;2250014;61;3856;-75
2020/12/19 09:44:06;0.00;0.00;0.62;0.00;0.00;0.62;;;;;27.20;35.60;;;;;;2248929;61;5884;-78
2020/12/19 09:46:32;0.00;0.00;0.62;0.00;0.00;0.62;;;;;27.20;35.60;;;;;;2247209;61;5814;-74
2020/12/19 09:48:59;365100.00;1.22;629.81;114731.00;0.38;198.99;;;;;27.10;35.80;;;;;;2245055;61;5826;-74
2020/12/19 09:51:30;0.00;0.00;0.62;0.00;0.00;0.62;;;;;26.90;36.10;;;;;;2246142;61;7398;-74
2020/12/19 09:53:56;0.00;0.00;0.62;0.00;0.00;0.62;;;;;26.90;36.30;;;;;;2245946;61;7637;-75
2020/12/19 09:56:23;0.00;0.00;0.62;0.00;0.00;0.62;;;;;26.80;36.30;;;;;;2247928;61;4284;-81
2020/12/19 09:58:49;355372.00;1.18;613.09;0.00;0.00;0.62;;;;;26.80;36.50;;;;;;2245682;61;4334;-77
2020/12/19 10:01:15;81974.00;0.27;142.45;0.00;0.00;0.62;;;;;26.90;36.70;;;;;;2245937;61;5937;-74
2020/12/19 10:03:41;0.00;0.00;0.62;0.00;0.00;0.62;;;;;27.00;36.50;;;;;;2247723;61;6120;-72
2020/12/19 10:06:15;0.00;0.00;0.62;0.00;0.00;0.62;;;;;27.00;36.40;;;;;;2247865;61;8611;-69
2020/12/19 10:08:45;0.00;0.00;0.62;0.00;0.00;0.62;;;;;27.00;36.50;;;;;;2246430;61;7949;-66
2020/12/19 10:11:12;680890.00;2.27;1174.12;0.00;0.00;0.62;;;;;26.90;36.50;;;;;;2240934;61;6011;-68
2020/12/19 10:13:38;687418.00;2.29;1185.43;32702.00;0.11;57.26;;;;;26.80;36.60;;;;;;2248511;61;6519;-69
2020/12/19 10:16:05;0.00;0.00;0.62;0.00;0.00;0.62;;;;;26.80;36.80;;;;;;2247594;61;7806;-66
2020/12/19 10:18:31;230128.00;0.77;397.77;0.00;0.00;0.62;;;;;26.70;36.70;;;;;;2248483;61;7644;-67
2020/12/19 10:21:01;0.00;0.00;0.62;0.00;0.00;0.62;;;;;26.70;36.80;;;;;;2250274;61;7559;-68
2020/12/19 10:23:29;0.00;0.00;0.62;0.00;0.00;0.62;;;;;26.70;36.90;;;;;;2250032;61;8026;-70
2020/12/19 10:25:56;0.00;0.00;0.62;0.00;0.00;0.62;;;;;26.60;37.00;;;;;;2249840;61;8329;-68
2020/12/19 10:28:22;0.00;0.00;0.62;0.00;0.00;0.62;;;;;26.50;37.00;;;;;;2245443;61;8799;-68
2020/12/19 10:30:49;214085.00;0.71;370.17;135228.00;0.45;234.34;;;;;26.50;37.10;;;;;;2243461;61;8238;-68
2020/12/19 10:33:15;0.00;0.00;0.62;0.00;0.00;0.62;;;;;26.40;37.20;;;;;;2245187;61;7567;-68
2020/12/19 10:35:48;0.00;0.00;0.62;0.00;0.00;0.62;;;;;26.40;37.20;;;;;;2244006;61;8392;-69
2020/12/19 10:38:22;0.00;0.00;0.62;0.00;0.00;0.62;;;;;26.40;37.20;;;;;;2246894;61;8481;-68
2020/12/19 10:40:57;156054.00;0.52;270.24;0.00;0.00;0.62;;;;;26.30;37.20;;;;;;2248919;61;8431;-69
2020/12/19 10:43:27;0.00;0.00;0.62;0.00;0.00;0.62;;;;;26.30;37.10;;;;;;2246598;61;7651;-68
2020/12/19 10:45:53;83950.00;0.28;145.86;0.00;0.00;0.62;;;;;26.30;37.20;;;;;;2241417;61;8032;-68